createdAt,value
2018-03-24T00:00:34.619Z,68.46
2018-03-24T00:03:02.441Z,68.64
2018-03-24T00:05:29.967Z,68.72
2018-03-24T00:07:57.596Z,69.11
2018-03-24T00:10:25.138Z,69.12
2018-03-24T00:12:52.653Z,69.02
2018-03-24T00:15:20.401Z,69.23
2018-03-24T00:17:47.913Z,69.33
2018-03-24T00:20:15.449Z,69.37
2018-03-24T00:22:42.989Z,69.53
2018-03-24T00:25:10.522Z,69.24
2018-03-24T00:27:38.094Z,70.15
2018-03-24T00:30:05.628Z,69.97
2018-03-24T00:32:33.136Z,70.08
2018-03-24T00:35:00.673Z,69.70
2018-03-24T00:37:28.185Z,69.58
2018-03-24T00:39:55.901Z,69.87
2018-03-24T00:42:23.409Z,69.41
2018-03-24T00:44:50.921Z,69.11
2018-03-24T00:47:18.526Z,69.28
2018-03-24T00:49:46.046Z,69.58
2018-03-24T00:52:13.590Z,69.78
2018-03-24T00:54:41.127Z,69.46
2018-03-24T00:57:08.661Z,69.65
2018-03-24T00:59:36.205Z,69.40
2018-03-24T01:02:03.742Z,69.27
2018-03-24T01:04:31.698Z,69.45
2018-03-24T01:06:59.209Z,69.55
2018-03-24T01:09:26.721Z,69.54
2018-03-24T01:11:54.270Z,70.07
2018-03-24T01:14:21.801Z,70.24
2018-03-24T01:16:49.367Z,69.88
2018-03-24T01:19:16.881Z,70.11
2018-03-24T01:21:44.398Z,70.14
2018-03-24T01:24:11.929Z,70.06
2018-03-24T01:26:39.452Z,70.25
2018-03-24T01:29:07.300Z,70.39
2018-03-24T01:31:34.814Z,70.55
2018-03-24T01:34:02.334Z,70.74
2018-03-24T01:36:29.883Z,70.90
2018-03-24T01:38:57.862Z,71.66
2018-03-24T01:41:25.601Z,71.69
2018-03-24T01:43:53.131Z,71.04
2018-03-24T01:46:20.654Z,71.17
2018-03-24T01:48:48.194Z,70.84
2018-03-24T01:51:15.725Z,70.64
2018-03-24T01:53:53.100Z,70.66
2018-03-24T01:56:21.632Z,70.44
2018-03-24T01:58:49.156Z,70.33
2018-03-24T02:01:16.714Z,70.70
2018-03-24T02:03:44.230Z,70.62
2018-03-24T02:06:11.792Z,70.49
2018-03-24T02:08:39.313Z,70.43
2018-03-24T02:11:06.835Z,70.99
2018-03-24T02:13:34.374Z,70.56
2018-03-24T02:16:01.891Z,69.89
2018-03-24T02:18:29.640Z,69.39
2018-03-24T02:20:57.549Z,69.28
2018-03-24T02:23:25.060Z,69.44
2018-03-24T02:25:52.611Z,69.37
2018-03-24T02:28:20.131Z,69.55
2018-03-24T02:30:47.850Z,69.59
2018-03-24T02:33:15.367Z,69.30
2018-03-24T02:35:42.890Z,69.50
2018-03-24T02:38:10.430Z,69.72
2018-03-24T02:40:37.972Z,69.63
2018-03-24T02:43:05.528Z,69.90
2018-03-24T02:45:33.058Z,69.25
2018-03-24T02:48:00.573Z,69.42
2018-03-24T02:50:28.123Z,69.31
2018-03-24T02:52:56.621Z,68.87
2018-03-24T02:55:24.569Z,70.04
2018-03-24T02:57:52.091Z,69.76
2018-03-24T03:00:19.606Z,69.38
2018-03-24T03:02:47.150Z,69.28
2018-03-24T03:05:14.669Z,69.09
2018-03-24T03:07:42.470Z,69.11
2018-03-24T03:10:09.986Z,69.20
2018-03-24T03:12:37.506Z,69.14
2018-03-24T03:15:05.051Z,69.24
2018-03-24T03:17:33.545Z,69.44
2018-03-24T03:20:01.097Z,69.34
2018-03-24T03:22:28.611Z,69.23
2018-03-24T03:24:56.129Z,69.76
2018-03-24T03:27:23.717Z,70.06
2018-03-24T03:29:51.229Z,69.71
2018-03-24T03:32:19.090Z,70.01
2018-03-24T03:34:46.608Z,70.25
2018-03-24T03:37:14.133Z,70.57
2018-03-24T03:39:41.742Z,70.31
2018-03-24T03:42:09.235Z,70.09
2018-03-24T03:44:36.773Z,70.22
2018-03-24T03:47:04.290Z,70.12
2018-03-24T03:49:31.801Z,69.97
2018-03-24T03:51:59.375Z,69.80
2018-03-24T03:54:26.889Z,69.76
2018-03-24T03:56:54.455Z,69.92
2018-03-24T03:59:21.969Z,69.77
2018-03-24T04:01:49.917Z,70.06
2018-03-24T04:04:17.508Z,70.09
2018-03-24T04:06:44.999Z,69.96
2018-03-24T04:09:12.674Z,70.32
2018-03-24T04:11:40.669Z,70.18
2018-03-24T04:14:08.201Z,70.22
2018-03-24T04:16:35.742Z,69.87
2018-03-24T04:19:03.267Z,69.59
2018-03-24T04:21:30.993Z,69.81
2018-03-24T04:23:58.518Z,70.21
2018-03-24T04:26:26.051Z,69.88
2018-03-24T04:28:53.614Z,70.44
2018-03-24T04:31:21.151Z,70.43
2018-03-24T04:33:48.895Z,70.31
2018-03-24T04:36:16.418Z,70.26
2018-03-24T04:38:43.933Z,70.24
2018-03-24T04:41:11.481Z,69.91
2018-03-24T04:43:39.000Z,69.88
2018-03-24T04:46:06.678Z,69.67
2018-03-24T04:48:35.104Z,70.01
2018-03-24T04:51:03.562Z,69.96
2018-03-24T04:53:31.121Z,70.31
2018-03-24T04:55:58.633Z,69.88
2018-03-24T04:58:26.183Z,69.66
2018-03-24T05:00:53.702Z,70.04
2018-03-24T05:03:21.213Z,70.07
2018-03-24T05:05:48.776Z,69.95
2018-03-24T05:08:16.594Z,70.24
2018-03-24T05:10:44.713Z,70.44
2018-03-24T05:13:12.241Z,70.45
2018-03-24T05:15:39.763Z,70.61
2018-03-24T05:18:07.311Z,70.50
2018-03-24T05:20:35.816Z,70.09
2018-03-24T05:23:03.546Z,70.64
2018-03-24T05:25:31.053Z,70.06
2018-03-24T05:27:58.738Z,69.81
2018-03-24T05:30:26.272Z,70.63
2018-03-24T05:32:53.795Z,70.35
2018-03-24T05:35:21.357Z,70.25
2018-03-24T05:37:48.868Z,70.43
2018-03-24T05:40:16.422Z,70.28
2018-03-24T05:42:43.970Z,70.37
2018-03-24T05:45:11.486Z,70.37
2018-03-24T05:47:39.133Z,70.39
2018-03-24T05:50:06.653Z,70.07
2018-03-24T05:52:34.183Z,69.78
2018-03-24T05:55:01.722Z,69.41
2018-03-24T05:57:30.246Z,68.90
2018-03-24T05:59:57.798Z,68.92
2018-03-24T06:02:25.314Z,68.82
2018-03-24T06:04:52.837Z,68.61
2018-03-24T06:07:20.375Z,68.65
2018-03-24T06:09:47.895Z,68.62
2018-03-24T06:12:15.654Z,68.55
2018-03-24T06:14:43.169Z,68.27
2018-03-24T06:17:11.212Z,67.96
2018-03-24T06:19:38.761Z,67.68
2018-03-24T06:22:07.251Z,67.38
2018-03-24T06:24:34.997Z,67.38
2018-03-24T06:27:03.496Z,66.64
2018-03-24T06:29:31.915Z,65.90
2018-03-24T06:32:02.812Z,64.51
2018-03-24T06:34:30.331Z,64.35
2018-03-24T06:37:03.849Z,63.58
2018-03-24T06:39:31.376Z,62.47
2018-03-24T06:41:58.898Z,61.71
2018-03-24T06:44:26.457Z,61.48
2018-03-24T06:46:54.018Z,61.39
2018-03-24T06:49:21.768Z,60.49
2018-03-24T06:51:49.741Z,59.12
2018-03-24T06:54:17.603Z,58.14
2018-03-24T06:56:45.194Z,57.08
2018-03-24T06:59:12.709Z,56.69
2018-03-24T07:01:40.466Z,56.82
2018-03-24T07:04:07.988Z,57.14
2018-03-24T07:06:36.936Z,57.53
2018-03-24T07:09:05.437Z,55.73
2018-03-24T07:11:32.958Z,55.04
2018-03-24T07:14:00.844Z,53.87
2018-03-24T07:16:28.365Z,53.16
2018-03-24T07:18:55.874Z,53.79
2018-03-24T07:21:23.409Z,52.64
2018-03-24T07:23:51.489Z,51.30
2018-03-24T07:26:19.361Z,51.01
2018-03-24T07:28:46.916Z,49.34
2018-03-24T07:31:14.576Z,49.08
2018-03-24T07:33:42.117Z,48.92
2018-03-24T07:36:11.054Z,49.30
2018-03-24T07:38:39.143Z,47.86
2018-03-24T07:41:06.629Z,47.04
2018-03-24T07:43:34.391Z,46.15
2018-03-24T07:46:02.258Z,45.72
2018-03-24T07:48:30.070Z,44.39
2018-03-24T07:50:58.294Z,44.99
2018-03-24T07:53:26.198Z,42.74
2018-03-24T07:55:53.958Z,44.56
2018-03-24T07:58:22.302Z,43.50
2018-03-24T08:00:49.994Z,43.80
2018-03-24T08:03:17.745Z,44.01
2018-03-24T08:05:45.632Z,42.67
2018-03-24T08:08:13.507Z,41.18
2018-03-24T08:10:41.365Z,39.73
2018-03-24T08:13:08.934Z,42.06
2018-03-24T08:15:36.773Z,40.98
2018-03-24T08:18:04.290Z,40.77
2018-03-24T08:20:31.825Z,38.45
2018-03-24T08:22:59.506Z,39.26
2018-03-24T08:25:27.116Z,38.18
2018-03-24T08:27:54.881Z,37.77
2018-03-24T08:30:22.786Z,35.81
2018-03-24T08:32:50.523Z,34.45
2018-03-24T08:35:18.388Z,34.51
2018-03-24T08:37:45.953Z,34.50
2018-03-24T08:40:14.020Z,33.54
2018-03-24T08:42:41.754Z,33.34
2018-03-24T08:45:09.356Z,30.53
2018-03-24T08:47:37.581Z,31.01
2018-03-24T08:50:05.242Z,29.88
2018-03-24T08:52:33.019Z,28.72
2018-03-24T08:55:00.710Z,28.74
2018-03-24T08:57:29.253Z,27.62
2018-03-24T08:59:57.034Z,27.47
2018-03-24T09:02:24.561Z,25.99
2018-03-24T09:04:52.249Z,25.23
2018-03-24T09:07:19.786Z,24.08
2018-03-24T09:09:47.599Z,24.58
2018-03-24T09:12:15.687Z,24.70
2018-03-24T09:14:43.639Z,24.83
2018-03-24T09:17:11.411Z,24.01
2018-03-24T09:19:39.560Z,24.60
2018-03-24T09:22:07.347Z,24.19
2018-03-24T09:24:34.978Z,22.09
2018-03-24T09:27:02.837Z,22.56
2018-03-24T09:29:31.002Z,21.93
2018-03-24T09:31:58.696Z,21.45
2018-03-24T09:34:26.923Z,18.79
2018-03-24T09:36:54.805Z,19.79
2018-03-24T09:39:22.460Z,21.34
2018-03-24T09:41:50.639Z,20.63
2018-03-24T09:44:18.548Z,20.00
2018-03-24T09:46:48.157Z,20.18
2018-03-24T09:49:16.091Z,19.97
2018-03-24T09:51:43.957Z,21.70
2018-03-24T09:54:11.859Z,22.07
2018-03-24T09:56:40.093Z,20.35
2018-03-24T09:59:08.000Z,21.16
2018-03-24T10:01:35.866Z,19.61
2018-03-24T10:04:03.634Z,18.71
2018-03-24T10:06:31.935Z,17.64
2018-03-24T10:08:59.773Z,18.37
2018-03-24T10:11:27.538Z,18.34
2018-03-24T10:13:55.362Z,17.52
2018-03-24T10:16:23.162Z,16.60
2018-03-24T10:18:51.137Z,16.43
2018-03-24T10:24:29.366Z,15.52
2018-03-24T10:26:58.060Z,15.84
2018-03-24T10:29:27.046Z,15.31
2018-03-24T10:31:55.218Z,16.04
2018-03-24T10:34:23.086Z,15.07
2018-03-24T10:36:51.064Z,16.36
2018-03-24T10:39:19.536Z,14.42
2018-03-24T10:41:47.268Z,13.53
2018-03-24T10:44:14.866Z,14.33
2018-03-24T10:46:42.518Z,14.09
2018-03-24T10:49:10.794Z,14.03
2018-03-24T10:51:38.663Z,14.03
2018-03-24T10:54:06.506Z,13.33
2018-03-24T10:56:34.162Z,13.53
2018-03-24T10:59:01.690Z,15.28
2018-03-24T11:01:29.616Z,15.95
2018-03-24T11:03:57.278Z,13.79
2018-03-24T11:06:25.022Z,14.53
2018-03-24T11:08:52.893Z,12.99
2018-03-24T11:11:20.465Z,13.03
2018-03-24T11:13:48.249Z,11.76
2018-03-24T11:16:15.941Z,11.60
2018-03-24T11:18:43.760Z,12.23
2018-03-24T11:21:11.395Z,10.93
2018-03-24T11:23:38.953Z,12.47
2018-03-24T11:26:06.848Z,13.19
2018-03-24T11:28:34.612Z,11.59
2018-03-24T11:31:02.478Z,11.79
2018-03-24T11:33:30.447Z,11.60
2018-03-24T11:35:58.373Z,10.64
2018-03-24T11:38:26.384Z,10.55
2018-03-24T11:40:54.133Z,11.45
2018-03-24T11:43:22.016Z,12.12
2018-03-24T11:45:49.885Z,12.37
2018-03-24T11:48:17.741Z,12.31
2018-03-24T11:50:45.711Z,12.96
2018-03-24T11:53:13.476Z,10.82
2018-03-24T11:55:41.130Z,11.54
2018-03-24T11:58:08.805Z,11.66
2018-03-24T12:00:36.677Z,11.79
2018-03-24T12:03:05.217Z,10.08
2018-03-24T12:05:33.224Z,9.62
2018-03-24T12:08:00.787Z,9.56
2018-03-24T12:10:28.445Z,10.07
2018-03-24T12:12:56.082Z,9.91
2018-03-24T12:15:24.079Z,10.46
2018-03-24T12:17:51.950Z,10.66
2018-03-24T12:20:20.163Z,11.04
2018-03-24T12:22:47.964Z,12.02
2018-03-24T12:25:15.856Z,11.00
2018-03-24T12:27:43.615Z,11.15
2018-03-24T12:30:11.380Z,11.12
2018-03-24T12:32:39.243Z,11.03
2018-03-24T12:35:06.903Z,11.42
2018-03-24T12:37:34.566Z,12.56
2018-03-24T12:40:02.639Z,10.67
2018-03-24T12:42:30.217Z,11.58
2018-03-24T12:44:57.744Z,11.23
2018-03-24T12:47:25.351Z,11.16
2018-03-24T12:49:53.083Z,12.56
2018-03-24T12:52:20.802Z,12.25
2018-03-24T12:54:48.685Z,11.92
2018-03-24T12:57:16.575Z,11.82
2018-03-24T12:59:44.432Z,13.15
2018-03-24T13:02:12.097Z,12.45
2018-03-24T13:04:40.381Z,11.65
2018-03-24T13:07:08.465Z,11.21
2018-03-24T13:09:36.216Z,11.72
2018-03-24T13:12:04.289Z,10.40
2018-03-24T13:14:32.154Z,10.01
2018-03-24T13:17:00.327Z,11.61
2018-03-24T13:19:28.184Z,10.44
2018-03-24T13:21:55.977Z,9.89
2018-03-24T13:24:23.770Z,10.31
2018-03-24T13:26:51.348Z,9.46
2018-03-24T13:29:19.149Z,10.74
2018-03-24T13:31:47.015Z,11.25
2018-03-24T13:34:14.881Z,11.85
2018-03-24T13:36:42.748Z,11.09
2018-03-24T13:39:11.202Z,10.83
2018-03-24T13:41:39.368Z,10.30
2018-03-24T13:44:07.063Z,9.44
2018-03-24T13:46:34.904Z,10.68
2018-03-24T13:49:03.310Z,12.43
2018-03-24T13:51:31.175Z,13.96
2018-03-24T13:53:58.940Z,14.83
2018-03-24T13:56:26.611Z,14.62
2018-03-24T13:58:54.319Z,13.87
2018-03-24T14:01:21.871Z,12.72
2018-03-24T14:03:50.255Z,13.02
2018-03-24T14:06:18.251Z,13.60
2018-03-24T14:08:45.987Z,12.72
2018-03-24T14:11:13.796Z,12.70
2018-03-24T14:13:41.667Z,12.32
2018-03-24T14:16:09.538Z,13.67
2018-03-24T14:18:37.497Z,13.97
2018-03-24T14:21:05.267Z,14.88
2018-03-24T14:23:32.888Z,15.70
2018-03-24T14:26:00.759Z,14.95
2018-03-24T14:28:28.972Z,13.34
2018-03-24T14:30:56.668Z,14.01
2018-03-24T14:33:25.489Z,13.49
2018-03-24T14:35:53.173Z,12.82
2018-03-24T14:38:21.049Z,13.81
2018-03-24T14:40:48.840Z,13.94
2018-03-24T14:43:16.781Z,13.95
2018-03-24T14:45:44.647Z,13.56
2018-03-24T14:48:12.544Z,13.60
2018-03-24T14:50:40.396Z,13.30
2018-03-24T14:53:07.987Z,14.04
2018-03-24T14:55:36.216Z,13.62
2018-03-24T14:58:03.972Z,14.41
2018-03-24T15:00:31.642Z,14.23
2018-03-24T15:02:59.304Z,15.05
2018-03-24T15:05:27.086Z,13.68
2018-03-24T15:07:55.447Z,13.25
2018-03-24T15:10:23.202Z,13.71
2018-03-24T15:12:50.864Z,14.58
2018-03-24T15:15:18.637Z,14.19
2018-03-24T15:17:46.708Z,13.97
2018-03-24T15:20:14.819Z,13.76
2018-03-24T15:22:42.453Z,14.80
2018-03-24T15:25:10.193Z,15.79
2018-03-24T15:27:38.020Z,16.27
2018-03-24T15:30:17.440Z,16.89
2018-03-24T15:32:52.006Z,17.39
2018-03-24T15:35:31.718Z,17.17
2018-03-24T15:37:59.489Z,17.43
2018-03-24T15:40:27.169Z,19.45
2018-03-24T15:42:54.747Z,21.02
2018-03-24T15:45:22.409Z,22.78
2018-03-24T15:47:50.292Z,24.20
2018-03-24T15:50:17.828Z,25.14
2018-03-24T15:52:45.409Z,25.86
2018-03-24T15:55:13.006Z,26.66
2018-03-24T15:57:40.628Z,26.42
2018-03-24T16:00:08.495Z,26.04
2018-03-24T16:02:36.260Z,26.90
2018-03-24T16:05:04.030Z,26.74
2018-03-24T16:07:31.789Z,27.11
2018-03-24T16:09:59.654Z,27.83
2018-03-24T16:12:27.418Z,28.47
2018-03-24T16:14:55.184Z,27.95
2018-03-24T16:17:22.951Z,27.64
2018-03-24T16:19:51.017Z,28.20
2018-03-24T16:22:18.589Z,27.79
2018-03-24T16:24:46.325Z,27.50
2018-03-24T16:27:14.005Z,27.94
2018-03-24T16:29:41.769Z,28.17
2018-03-24T16:32:09.637Z,28.96
2018-03-24T16:34:37.501Z,29.34
2018-03-24T16:37:05.449Z,29.47
2018-03-24T16:39:33.057Z,30.44
2018-03-24T16:42:00.682Z,30.23
2018-03-24T16:44:28.660Z,30.95
2018-03-24T16:46:56.290Z,32.28
2018-03-24T16:49:24.169Z,31.32
2018-03-24T16:51:51.791Z,31.86
2018-03-24T16:54:19.502Z,31.54
2018-03-24T16:56:47.723Z,32.06
2018-03-24T16:59:15.757Z,31.99
2018-03-24T17:01:43.727Z,32.63
2018-03-24T17:04:11.881Z,31.99
2018-03-24T17:06:39.975Z,32.09
2018-03-24T17:09:07.764Z,32.71
2018-03-24T17:11:35.618Z,32.73
2018-03-24T17:14:03.469Z,33.01
2018-03-24T17:16:31.439Z,33.17
2018-03-24T17:18:59.483Z,33.52
2018-03-24T17:21:27.649Z,33.73
2018-03-24T17:23:55.548Z,33.84
2018-03-24T17:26:23.156Z,33.81
2018-03-24T17:28:51.239Z,33.79
2018-03-24T17:31:19.045Z,34.13
2018-03-24T17:33:47.731Z,34.44
2018-03-24T17:36:16.089Z,34.86
2018-03-24T17:38:43.647Z,35.13
2018-03-24T17:41:11.321Z,35.38
2018-03-24T17:43:39.300Z,35.12
2018-03-24T17:46:06.896Z,35.70
2018-03-24T17:48:34.445Z,35.79
2018-03-24T17:51:02.011Z,35.64
2018-03-24T17:53:29.639Z,36.38
2018-03-24T17:55:57.249Z,36.37
2018-03-24T17:58:25.065Z,36.69
2018-03-24T18:00:52.607Z,36.98
2018-03-24T18:03:20.175Z,37.12
2018-03-24T18:05:47.844Z,37.19
2018-03-24T18:08:15.609Z,37.65
2018-03-24T18:10:43.373Z,39.46
2018-03-24T18:13:11.217Z,40.64
2018-03-24T18:15:38.901Z,41.47
2018-03-24T18:18:06.678Z,43.27
2018-03-24T18:20:34.658Z,43.74
2018-03-24T18:23:02.707Z,43.97
2018-03-24T18:25:30.778Z,44.08
2018-03-24T18:27:58.644Z,44.33
2018-03-24T18:30:26.514Z,44.01
2018-03-24T18:32:54.377Z,43.36
2018-03-24T18:35:22.141Z,43.67
2018-03-24T18:37:49.927Z,43.59
2018-03-24T18:40:17.879Z,43.54
2018-03-24T18:42:45.946Z,43.69
2018-03-24T18:45:13.812Z,44.10
2018-03-24T18:47:42.105Z,45.05
2018-03-24T18:50:10.032Z,45.22
2018-03-24T18:52:37.925Z,45.07
2018-03-24T18:55:05.997Z,45.66
2018-03-24T18:57:33.763Z,45.12
2018-03-24T19:00:01.441Z,45.35
2018-03-24T19:02:29.493Z,45.14
2018-03-24T19:04:57.769Z,45.22
2018-03-24T19:07:25.841Z,45.55
2018-03-24T19:09:53.536Z,46.11
2018-03-24T19:12:21.550Z,46.64
2018-03-24T19:14:49.659Z,46.82
2018-03-24T19:17:18.440Z,47.46
2018-03-24T19:19:46.634Z,47.52
2018-03-24T19:22:14.473Z,47.47
2018-03-24T19:24:42.314Z,47.58
2018-03-24T19:27:10.917Z,47.76
2018-03-24T19:29:38.585Z,48.04
2018-03-24T19:32:06.553Z,48.04
2018-03-24T19:34:34.425Z,48.11
2018-03-24T19:37:02.287Z,48.44
2018-03-24T19:39:30.894Z,48.63
2018-03-24T19:41:58.869Z,48.50
2018-03-24T19:44:27.144Z,48.27
2018-03-24T19:46:54.974Z,48.80
2018-03-24T19:49:22.985Z,48.41
2018-03-24T19:51:51.533Z,48.64
2018-03-24T19:54:19.488Z,48.86
2018-03-24T19:56:50.406Z,48.78
2018-03-24T19:59:18.512Z,48.90
2018-03-24T20:01:46.473Z,48.77
2018-03-24T20:04:14.802Z,48.71
2018-03-24T20:06:42.578Z,48.80
2018-03-24T20:09:10.592Z,48.94
2018-03-24T20:11:38.663Z,49.21
2018-03-24T20:14:07.458Z,49.00
2018-03-24T20:16:35.522Z,49.58
2018-03-24T20:19:03.714Z,49.27
2018-03-24T20:21:32.077Z,49.05
2018-03-24T20:23:59.960Z,49.45
2018-03-24T20:26:28.024Z,49.38
2018-03-24T20:31:29.933Z,49.81
2018-03-24T20:33:58.064Z,49.75
2018-03-24T20:36:25.932Z,49.64
2018-03-24T20:38:53.794Z,49.84
2018-03-24T20:41:21.806Z,50.43
2018-03-24T20:43:50.501Z,50.53
2018-03-24T20:46:18.516Z,50.11
2018-03-24T20:48:46.285Z,50.20
2018-03-24T20:51:14.256Z,50.53
2018-03-24T20:53:42.443Z,50.66
2018-03-24T20:56:10.381Z,50.51
2018-03-24T20:58:38.658Z,50.67
2018-03-24T21:01:06.542Z,50.81
2018-03-24T21:03:35.125Z,50.29
2018-03-24T21:06:03.401Z,50.25
2018-03-24T21:08:31.456Z,50.52
2018-03-24T21:11:01.081Z,50.73
2018-03-24T21:13:29.362Z,50.45
2018-03-24T21:15:57.329Z,50.85
2018-03-24T21:18:25.536Z,50.81
2018-03-24T21:20:53.423Z,51.19
2018-03-24T21:23:21.437Z,51.16
2018-03-24T21:25:49.512Z,51.22
2018-03-24T21:28:17.352Z,51.17
2018-03-24T21:30:45.240Z,51.28
2018-03-24T21:33:13.312Z,51.39
2018-03-24T21:35:41.178Z,51.65
2018-03-24T21:38:09.044Z,51.50
2018-03-24T21:40:36.912Z,51.68
2018-03-24T21:43:05.700Z,51.57
2018-03-24T21:45:34.283Z,52.00
2018-03-24T21:48:02.239Z,52.14
2018-03-24T21:50:30.426Z,52.27
2018-03-24T21:52:59.623Z,52.17
2018-03-24T21:55:27.496Z,52.35
2018-03-24T21:57:55.356Z,52.18
2018-03-24T22:00:23.590Z,52.70
2018-03-24T22:02:51.725Z,52.40
2018-03-24T22:05:19.572Z,53.19
2018-03-24T22:07:47.316Z,52.53
2018-03-24T22:10:15.097Z,53.21
2018-03-24T22:12:43.580Z,53.04
2018-03-24T22:15:11.801Z,53.45
2018-03-24T22:17:39.722Z,52.91
2018-03-24T22:20:07.486Z,52.85
2018-03-24T22:22:35.268Z,52.97
2018-03-24T22:25:03.433Z,53.33
2018-03-24T22:27:31.188Z,52.53
2018-03-24T22:29:58.986Z,52.49
2018-03-24T22:32:27.025Z,52.58
2018-03-24T22:34:54.691Z,52.58
2018-03-24T22:37:23.066Z,52.33
2018-03-24T22:39:50.774Z,52.62
2018-03-24T22:42:18.493Z,53.05
2018-03-24T22:44:46.160Z,52.70
2018-03-24T22:47:14.230Z,52.76
2018-03-24T22:49:42.230Z,53.13
2018-03-24T22:52:10.117Z,53.32
2018-03-24T22:54:38.027Z,53.39
2018-03-24T22:57:05.895Z,53.76
2018-03-24T22:59:34.246Z,53.19
2018-03-24T23:02:01.948Z,53.03
2018-03-24T23:04:29.820Z,53.39
2018-03-24T23:06:57.565Z,53.72
2018-03-24T23:09:25.309Z,54.05
2018-03-24T23:11:52.938Z,54.21
2018-03-24T23:14:20.755Z,54.50
2018-03-24T23:16:48.327Z,54.55
2018-03-24T23:19:16.054Z,55.01
2018-03-24T23:21:43.617Z,54.90
2018-03-24T23:24:11.246Z,55.27
2018-03-24T23:26:38.935Z,55.36
2018-03-24T23:29:06.445Z,55.62
2018-03-24T23:31:33.978Z,55.71
2018-03-24T23:34:01.517Z,55.74
2018-03-24T23:36:29.037Z,56.13
2018-03-24T23:38:56.654Z,56.19
2018-03-24T23:41:24.200Z,55.99
2018-03-24T23:43:52.189Z,56.25
2018-03-24T23:46:19.730Z,56.46
2018-03-24T23:48:47.263Z,56.71
2018-03-24T23:51:15.154Z,56.99
2018-03-24T23:53:42.680Z,57.21
2018-03-24T23:56:10.203Z,57.42
2018-03-24T23:58:38.665Z,57.21
